sensor_id;sensor_type;location;lat;lon;timestamp;P1;durP1;ratioP1;P2;durP2;ratioP2
20036;SDS011;10179;42.640;23.312;2023-07-13T00:01:57;5.68;;;2.80;;
20036;SDS011;10179;42.640;23.312;2023-07-13T00:04:24;4.57;;;2.90;;
20036;SDS011;10179;42.640;23.312;2023-07-13T00:06:52;6.70;;;2.45;;
20036;SDS011;10179;42.640;23.312;2023-07-13T00:09:18;6.53;;;2.88;;
20036;SDS011;10179;42.640;23.312;2023-07-13T00:11:45;3.90;;;2.67;;
20036;SDS011;10179;42.640;23.312;2023-07-13T00:14:12;4.55;;;2.58;;
20036;SDS011;10179;42.640;23.312;2023-07-13T00:16:38;8.55;;;2.90;;
20036;SDS011;10179;42.640;23.312;2023-07-13T00:19:06;5.50;;;2.70;;
20036;SDS011;10179;42.640;23.312;2023-07-13T00:21:31;5.95;;;3.08;;
20036;SDS011;10179;42.640;23.312;2023-07-13T00:23:57;6.22;;;3.03;;
20036;SDS011;10179;42.640;23.312;2023-07-13T00:26:23;7.15;;;3.10;;
20036;SDS011;10179;42.640;23.312;2023-07-13T00:28:48;4.53;;;2.80;;
20036;SDS011;10179;42.640;23.312;2023-07-13T00:31:14;5.40;;;3.10;;
20036;SDS011;10179;42.640;23.312;2023-07-13T00:33:40;7.70;;;3.00;;
20036;SDS011;10179;42.640;23.312;2023-07-13T00:36:05;7.40;;;3.15;;
20036;SDS011;10179;42.640;23.312;2023-07-13T00:38:31;5.18;;;3.10;;
20036;SDS011;10179;42.640;23.312;2023-07-13T00:40:57;7.65;;;3.65;;
20036;SDS011;10179;42.640;23.312;2023-07-13T00:43:23;5.30;;;3.20;;
20036;SDS011;10179;42.640;23.312;2023-07-13T00:48:20;9.02;;;2.85;;
20036;SDS011;10179;42.640;23.312;2023-07-13T00:50:48;5.63;;;2.80;;
20036;SDS011;10179;42.640;23.312;2023-07-13T00:53:16;12.80;;;3.28;;
20036;SDS011;10179;42.640;23.312;2023-07-13T00:55:43;7.00;;;3.35;;
20036;SDS011;10179;42.640;23.312;2023-07-13T00:58:09;12.70;;;3.58;;
20036;SDS011;10179;42.640;23.312;2023-07-13T01:00:35;7.07;;;3.25;;
20036;SDS011;10179;42.640;23.312;2023-07-13T01:03:03;8.93;;;2.70;;
20036;SDS011;10179;42.640;23.312;2023-07-13T01:05:29;7.15;;;3.08;;
20036;SDS011;10179;42.640;23.312;2023-07-13T01:07:56;4.10;;;2.72;;
20036;SDS011;10179;42.640;23.312;2023-07-13T01:10:24;5.63;;;3.33;;
20036;SDS011;10179;42.640;23.312;2023-07-13T01:12:50;13.82;;;3.47;;
20036;SDS011;10179;42.640;23.312;2023-07-13T01:18:23;5.30;;;3.10;;
20036;SDS011;10179;42.640;23.312;2023-07-13T01:23:19;10.35;;;3.50;;
20036;SDS011;10179;42.640;23.312;2023-07-13T01:25:45;3.78;;;3.20;;
20036;SDS011;10179;42.640;23.312;2023-07-13T01:28:11;6.78;;;3.35;;
20036;SDS011;10179;42.640;23.312;2023-07-13T01:30:36;6.80;;;3.60;;
20036;SDS011;10179;42.640;23.312;2023-07-13T01:33:05;5.97;;;3.10;;
20036;SDS011;10179;42.640;23.312;2023-07-13T01:35:34;5.38;;;3.35;;
20036;SDS011;10179;42.640;23.312;2023-07-13T01:38:00;7.65;;;3.45;;
20036;SDS011;10179;42.640;23.312;2023-07-13T01:40:26;5.15;;;2.72;;
20036;SDS011;10179;42.640;23.312;2023-07-13T01:42:53;6.93;;;3.10;;
20036;SDS011;10179;42.640;23.312;2023-07-13T01:45:18;4.50;;;3.15;;
20036;SDS011;10179;42.640;23.312;2023-07-13T01:47:44;7.50;;;3.50;;
20036;SDS011;10179;42.640;23.312;2023-07-13T01:50:09;6.03;;;3.28;;
20036;SDS011;10179;42.640;23.312;2023-07-13T01:52:35;6.03;;;2.92;;
20036;SDS011;10179;42.640;23.312;2023-07-13T01:55:00;5.22;;;3.03;;
20036;SDS011;10179;42.640;23.312;2023-07-13T01:57:27;6.38;;;3.72;;
20036;SDS011;10179;42.640;23.312;2023-07-13T01:59:53;7.80;;;3.35;;
20036;SDS011;10179;42.640;23.312;2023-07-13T02:02:18;9.18;;;3.78;;
20036;SDS011;10179;42.640;23.312;2023-07-13T02:04:43;5.25;;;3.50;;
20036;SDS011;10179;42.640;23.312;2023-07-13T02:07:09;8.50;;;3.80;;
20036;SDS011;10179;42.640;23.312;2023-07-13T02:09:34;7.25;;;3.50;;
20036;SDS011;10179;42.640;23.312;2023-07-13T02:12:00;7.78;;;3.90;;
20036;SDS011;10179;42.640;23.312;2023-07-13T02:14:25;8.13;;;4.05;;
20036;SDS011;10179;42.640;23.312;2023-07-13T02:16:51;9.40;;;3.50;;
20036;SDS011;10179;42.640;23.312;2023-07-13T02:19:16;6.65;;;3.92;;
20036;SDS011;10179;42.640;23.312;2023-07-13T02:21:42;4.00;;;3.08;;
20036;SDS011;10179;42.640;23.312;2023-07-13T02:24:08;6.97;;;3.70;;
20036;SDS011;10179;42.640;23.312;2023-07-13T02:26:33;7.82;;;3.35;;
20036;SDS011;10179;42.640;23.312;2023-07-13T02:28:59;7.80;;;3.53;;
20036;SDS011;10179;42.640;23.312;2023-07-13T02:31:24;8.75;;;3.40;;
20036;SDS011;10179;42.640;23.312;2023-07-13T02:33:50;9.63;;;3.75;;
20036;SDS011;10179;42.640;23.312;2023-07-13T02:36:15;7.40;;;3.90;;
20036;SDS011;10179;42.640;23.312;2023-07-13T02:38:41;10.10;;;3.97;;
20036;SDS011;10179;42.640;23.312;2023-07-13T02:41:07;6.78;;;4.03;;
20036;SDS011;10179;42.640;23.312;2023-07-13T02:43:34;6.78;;;3.88;;
20036;SDS011;10179;42.640;23.312;2023-07-13T02:46:00;7.40;;;3.80;;
20036;SDS011;10179;42.640;23.312;2023-07-13T02:48:32;11.25;;;4.22;;
20036;SDS011;10179;42.640;23.312;2023-07-13T02:50:58;7.47;;;3.53;;
20036;SDS011;10179;42.640;23.312;2023-07-13T02:53:23;10.10;;;4.07;;
20036;SDS011;10179;42.640;23.312;2023-07-13T02:55:49;10.40;;;4.28;;
20036;SDS011;10179;42.640;23.312;2023-07-13T02:58:15;8.70;;;3.45;;
20036;SDS011;10179;42.640;23.312;2023-07-13T03:00:43;10.20;;;4.45;;
20036;SDS011;10179;42.640;23.312;2023-07-13T03:03:12;8.27;;;4.03;;
20036;SDS011;10179;42.640;23.312;2023-07-13T03:05:40;8.77;;;4.18;;
20036;SDS011;10179;42.640;23.312;2023-07-13T03:08:10;10.43;;;3.85;;
20036;SDS011;10179;42.640;23.312;2023-07-13T03:10:36;8.07;;;3.80;;
20036;SDS011;10179;42.640;23.312;2023-07-13T03:13:02;7.95;;;3.30;;
20036;SDS011;10179;42.640;23.312;2023-07-13T03:15:28;10.73;;;3.75;;
20036;SDS011;10179;42.640;23.312;2023-07-13T03:17:53;5.40;;;3.60;;
20036;SDS011;10179;42.640;23.312;2023-07-13T03:20:19;10.55;;;3.78;;
20036;SDS011;10179;42.640;23.312;2023-07-13T03:22:44;9.50;;;3.83;;
20036;SDS011;10179;42.640;23.312;2023-07-13T03:25:10;8.43;;;4.07;;
20036;SDS011;10179;42.640;23.312;2023-07-13T03:27:36;8.40;;;4.65;;
20036;SDS011;10179;42.640;23.312;2023-07-13T03:30:02;10.43;;;4.93;;
20036;SDS011;10179;42.640;23.312;2023-07-13T03:32:28;7.32;;;4.30;;
20036;SDS011;10179;42.640;23.312;2023-07-13T03:34:54;17.88;;;5.03;;
20036;SDS011;10179;42.640;23.312;2023-07-13T03:37:20;13.25;;;5.20;;
20036;SDS011;10179;42.640;23.312;2023-07-13T03:39:45;8.52;;;5.13;;
20036;SDS011;10179;42.640;23.312;2023-07-13T03:42:11;8.23;;;4.72;;
20036;SDS011;10179;42.640;23.312;2023-07-13T03:44:39;9.13;;;4.68;;
20036;SDS011;10179;42.640;23.312;2023-07-13T03:47:06;12.15;;;5.20;;
20036;SDS011;10179;42.640;23.312;2023-07-13T03:49:33;9.65;;;5.15;;
20036;SDS011;10179;42.640;23.312;2023-07-13T03:51:59;9.93;;;5.15;;
20036;SDS011;10179;42.640;23.312;2023-07-13T03:54:25;10.35;;;5.18;;
20036;SDS011;10179;42.640;23.312;2023-07-13T03:56:50;7.95;;;5.03;;
20036;SDS011;10179;42.640;23.312;2023-07-13T03:59:15;10.73;;;5.93;;
20036;SDS011;10179;42.640;23.312;2023-07-13T04:01:41;11.88;;;6.00;;
20036;SDS011;10179;42.640;23.312;2023-07-13T04:04:08;9.43;;;5.20;;
20036;SDS011;10179;42.640;23.312;2023-07-13T04:06:33;9.63;;;5.22;;
20036;SDS011;10179;42.640;23.312;2023-07-13T04:08:59;11.73;;;5.53;;
20036;SDS011;10179;42.640;23.312;2023-07-13T04:11:29;15.15;;;5.63;;
20036;SDS011;10179;42.640;23.312;2023-07-13T04:13:56;12.18;;;5.65;;
20036;SDS011;10179;42.640;23.312;2023-07-13T04:16:22;8.75;;;5.53;;
20036;SDS011;10179;42.640;23.312;2023-07-13T04:18:48;15.93;;;5.82;;
20036;SDS011;10179;42.640;23.312;2023-07-13T04:21:14;13.63;;;5.25;;
20036;SDS011;10179;42.640;23.312;2023-07-13T04:23:40;10.52;;;4.88;;
20036;SDS011;10179;42.640;23.312;2023-07-13T04:26:06;9.10;;;5.10;;
20036;SDS011;10179;42.640;23.312;2023-07-13T04:28:32;13.13;;;6.55;;
20036;SDS011;10179;42.640;23.312;2023-07-13T04:30:58;16.17;;;5.57;;
20036;SDS011;10179;42.640;23.312;2023-07-13T04:33:24;14.40;;;5.68;;
20036;SDS011;10179;42.640;23.312;2023-07-13T04:35:52;13.98;;;6.15;;
20036;SDS011;10179;42.640;23.312;2023-07-13T04:38:23;13.43;;;6.15;;
20036;SDS011;10179;42.640;23.312;2023-07-13T04:40:50;21.10;;;6.70;;
20036;SDS011;10179;42.640;23.312;2023-07-13T04:43:16;18.60;;;6.15;;
20036;SDS011;10179;42.640;23.312;2023-07-13T04:45:42;16.27;;;7.05;;
20036;SDS011;10179;42.640;23.312;2023-07-13T04:48:08;10.70;;;5.68;;
20036;SDS011;10179;42.640;23.312;2023-07-13T04:50:35;12.02;;;6.05;;
20036;SDS011;10179;42.640;23.312;2023-07-13T04:53:02;11.90;;;6.15;;
20036;SDS011;10179;42.640;23.312;2023-07-13T04:55:29;18.27;;;6.25;;
20036;SDS011;10179;42.640;23.312;2023-07-13T04:57:56;13.82;;;5.95;;
20036;SDS011;10179;42.640;23.312;2023-07-13T05:00:21;15.95;;;6.13;;
20036;SDS011;10179;42.640;23.312;2023-07-13T05:02:47;16.23;;;6.13;;
20036;SDS011;10179;42.640;23.312;2023-07-13T05:05:12;13.90;;;6.80;;
20036;SDS011;10179;42.640;23.312;2023-07-13T05:07:38;14.88;;;7.20;;
20036;SDS011;10179;42.640;23.312;2023-07-13T05:10:03;13.65;;;7.85;;
20036;SDS011;10179;42.640;23.312;2023-07-13T05:12:29;17.88;;;6.90;;
20036;SDS011;10179;42.640;23.312;2023-07-13T05:14:55;15.30;;;7.05;;
20036;SDS011;10179;42.640;23.312;2023-07-13T05:17:21;10.90;;;6.10;;
20036;SDS011;10179;42.640;23.312;2023-07-13T05:19:46;13.55;;;6.18;;
20036;SDS011;10179;42.640;23.312;2023-07-13T05:22:12;18.35;;;7.00;;
20036;SDS011;10179;42.640;23.312;2023-07-13T05:24:37;12.32;;;6.47;;
20036;SDS011;10179;42.640;23.312;2023-07-13T05:27:03;15.02;;;6.50;;
20036;SDS011;10179;42.640;23.312;2023-07-13T05:29:28;21.40;;;7.13;;
20036;SDS011;10179;42.640;23.312;2023-07-13T05:31:54;15.85;;;6.68;;
20036;SDS011;10179;42.640;23.312;2023-07-13T05:34:20;16.40;;;7.22;;
20036;SDS011;10179;42.640;23.312;2023-07-13T05:36:45;13.73;;;6.50;;
20036;SDS011;10179;42.640;23.312;2023-07-13T05:39:10;11.70;;;6.30;;
20036;SDS011;10179;42.640;23.312;2023-07-13T05:41:36;15.07;;;6.22;;
20036;SDS011;10179;42.640;23.312;2023-07-13T05:44:02;21.98;;;6.97;;
20036;SDS011;10179;42.640;23.312;2023-07-13T05:46:28;19.92;;;6.97;;
20036;SDS011;10179;42.640;23.312;2023-07-13T05:48:53;14.38;;;6.63;;
20036;SDS011;10179;42.640;23.312;2023-07-13T05:51:18;14.10;;;6.10;;
20036;SDS011;10179;42.640;23.312;2023-07-13T05:53:44;14.52;;;6.15;;
20036;SDS011;10179;42.640;23.312;2023-07-13T05:56:09;12.68;;;5.93;;
20036;SDS011;10179;42.640;23.312;2023-07-13T05:58:35;15.35;;;5.93;;
20036;SDS011;10179;42.640;23.312;2023-07-13T06:01:08;11.48;;;6.32;;
20036;SDS011;10179;42.640;23.312;2023-07-13T06:03:36;11.75;;;6.40;;
20036;SDS011;10179;42.640;23.312;2023-07-13T06:06:06;14.88;;;5.82;;
20036;SDS011;10179;42.640;23.312;2023-07-13T06:08:33;14.52;;;4.95;;
20036;SDS011;10179;42.640;23.312;2023-07-13T06:11:03;10.02;;;5.10;;
20036;SDS011;10179;42.640;23.312;2023-07-13T06:13:30;9.93;;;5.28;;
20036;SDS011;10179;42.640;23.312;2023-07-13T06:15:55;12.07;;;5.65;;
20036;SDS011;10179;42.640;23.312;2023-07-13T06:18:20;13.50;;;6.13;;
20036;SDS011;10179;42.640;23.312;2023-07-13T06:20:46;11.70;;;6.57;;
20036;SDS011;10179;42.640;23.312;2023-07-13T06:23:11;10.50;;;6.18;;
20036;SDS011;10179;42.640;23.312;2023-07-13T06:25:37;12.73;;;6.03;;
20036;SDS011;10179;42.640;23.312;2023-07-13T06:28:02;13.88;;;6.43;;
20036;SDS011;10179;42.640;23.312;2023-07-13T06:30:27;15.07;;;6.15;;
20036;SDS011;10179;42.640;23.312;2023-07-13T06:32:53;16.75;;;6.70;;
20036;SDS011;10179;42.640;23.312;2023-07-13T06:35:18;17.40;;;6.60;;
20036;SDS011;10179;42.640;23.312;2023-07-13T06:37:44;14.48;;;5.90;;
20036;SDS011;10179;42.640;23.312;2023-07-13T06:40:09;11.90;;;6.03;;
20036;SDS011;10179;42.640;23.312;2023-07-13T06:42:35;10.65;;;6.45;;
20036;SDS011;10179;42.640;23.312;2023-07-13T06:45:00;11.48;;;6.57;;
20036;SDS011;10179;42.640;23.312;2023-07-13T06:47:26;12.55;;;6.30;;
20036;SDS011;10179;42.640;23.312;2023-07-13T06:49:52;17.88;;;6.25;;
20036;SDS011;10179;42.640;23.312;2023-07-13T06:52:17;10.20;;;5.80;;
20036;SDS011;10179;42.640;23.312;2023-07-13T06:54:43;12.45;;;6.38;;
20036;SDS011;10179;42.640;23.312;2023-07-13T06:57:08;10.38;;;6.00;;
20036;SDS011;10179;42.640;23.312;2023-07-13T06:59:34;9.77;;;5.97;;
20036;SDS011;10179;42.640;23.312;2023-07-13T07:01:59;10.77;;;6.50;;
20036;SDS011;10179;42.640;23.312;2023-07-13T07:04:24;9.90;;;6.35;;
20036;SDS011;10179;42.640;23.312;2023-07-13T07:06:50;10.23;;;6.05;;
20036;SDS011;10179;42.640;23.312;2023-07-13T07:09:15;19.00;;;6.43;;
20036;SDS011;10179;42.640;23.312;2023-07-13T07:11:41;10.82;;;6.95;;
20036;SDS011;10179;42.640;23.312;2023-07-13T07:14:07;18.63;;;6.97;;
20036;SDS011;10179;42.640;23.312;2023-07-13T07:16:32;12.80;;;6.03;;
20036;SDS011;10179;42.640;23.312;2023-07-13T07:18:58;11.80;;;5.40;;
20036;SDS011;10179;42.640;23.312;2023-07-13T07:21:23;10.75;;;5.20;;
20036;SDS011;10179;42.640;23.312;2023-07-13T07:23:49;15.90;;;5.43;;
20036;SDS011;10179;42.640;23.312;2023-07-13T07:26:14;9.23;;;5.45;;
20036;SDS011;10179;42.640;23.312;2023-07-13T07:28:40;11.43;;;5.75;;
20036;SDS011;10179;42.640;23.312;2023-07-13T07:31:05;10.98;;;5.45;;
20036;SDS011;10179;42.640;23.312;2023-07-13T07:33:32;14.52;;;6.07;;
20036;SDS011;10179;42.640;23.312;2023-07-13T07:35:58;8.13;;;5.63;;
20036;SDS011;10179;42.640;23.312;2023-07-13T07:38:24;7.35;;;5.15;;
20036;SDS011;10179;42.640;23.312;2023-07-13T07:40:49;11.02;;;5.55;;
20036;SDS011;10179;42.640;23.312;2023-07-13T07:43:14;17.42;;;5.65;;
20036;SDS011;10179;42.640;23.312;2023-07-13T07:45:40;12.13;;;5.82;;
20036;SDS011;10179;42.640;23.312;2023-07-13T07:48:06;15.75;;;5.90;;
20036;SDS011;10179;42.640;23.312;2023-07-13T07:50:32;8.55;;;5.35;;
20036;SDS011;10179;42.640;23.312;2023-07-13T07:52:57;14.73;;;5.82;;
20036;SDS011;10179;42.640;23.312;2023-07-13T07:55:24;11.25;;;5.30;;
20036;SDS011;10179;42.640;23.312;2023-07-13T07:57:53;15.32;;;5.25;;
20036;SDS011;10179;42.640;23.312;2023-07-13T08:00:19;20.20;;;5.82;;
20036;SDS011;10179;42.640;23.312;2023-07-13T08:02:45;11.05;;;5.43;;
20036;SDS011;10179;42.640;23.312;2023-07-13T08:05:10;10.82;;;5.63;;
20036;SDS011;10179;42.640;23.312;2023-07-13T08:07:36;13.05;;;5.47;;
20036;SDS011;10179;42.640;23.312;2023-07-13T08:10:03;10.77;;;5.00;;
20036;SDS011;10179;42.640;23.312;2023-07-13T08:12:30;9.23;;;5.53;;
20036;SDS011;10179;42.640;23.312;2023-07-13T08:14:59;12.13;;;4.95;;
20036;SDS011;10179;42.640;23.312;2023-07-13T08:17:25;12.75;;;5.10;;
20036;SDS011;10179;42.640;23.312;2023-07-13T08:19:51;9.73;;;5.30;;
20036;SDS011;10179;42.640;23.312;2023-07-13T08:22:16;10.93;;;4.97;;
20036;SDS011;10179;42.640;23.312;2023-07-13T08:24:42;10.32;;;4.70;;
20036;SDS011;10179;42.640;23.312;2023-07-13T08:27:07;14.55;;;4.90;;
20036;SDS011;10179;42.640;23.312;2023-07-13T08:29:33;6.82;;;4.60;;
20036;SDS011;10179;42.640;23.312;2023-07-13T08:31:59;8.75;;;5.38;;
20036;SDS011;10179;42.640;23.312;2023-07-13T08:34:24;13.77;;;5.32;;
20036;SDS011;10179;42.640;23.312;2023-07-13T08:36:50;8.77;;;4.95;;
20036;SDS011;10179;42.640;23.312;2023-07-13T08:39:15;11.40;;;5.38;;
20036;SDS011;10179;42.640;23.312;2023-07-13T08:41:40;10.60;;;4.70;;
20036;SDS011;10179;42.640;23.312;2023-07-13T08:44:07;12.25;;;5.05;;
20036;SDS011;10179;42.640;23.312;2023-07-13T08:46:45;9.57;;;4.80;;
20036;SDS011;10179;42.640;23.312;2023-07-13T08:49:13;12.82;;;5.25;;
20036;SDS011;10179;42.640;23.312;2023-07-13T08:57:02;8.95;;;5.53;;
20036;SDS011;10179;42.640;23.312;2023-07-13T08:59:39;7.63;;;5.22;;
20036;SDS011;10179;42.640;23.312;2023-07-13T09:02:23;10.63;;;5.13;;
20036;SDS011;10179;42.640;23.312;2023-07-13T09:04:59;7.67;;;4.90;;
20036;SDS011;10179;42.640;23.312;2023-07-13T09:08:18;7.78;;;4.70;;
20036;SDS011;10179;42.640;23.312;2023-07-13T09:10:28;8.20;;;4.80;;
20036;SDS011;10179;42.640;23.312;2023-07-13T09:15:41;9.05;;;4.80;;
20036;SDS011;10179;42.640;23.312;2023-07-13T09:21:00;6.03;;;4.68;;
20036;SDS011;10179;42.640;23.312;2023-07-13T09:23:39;10.18;;;4.75;;
20036;SDS011;10179;42.640;23.312;2023-07-13T09:28:40;9.52;;;4.43;;
20036;SDS011;10179;42.640;23.312;2023-07-13T09:31:13;12.93;;;4.72;;
20036;SDS011;10179;42.640;23.312;2023-07-13T09:33:41;20.65;;;4.57;;
20036;SDS011;10179;42.640;23.312;2023-07-13T09:36:20;10.45;;;5.40;;
20036;SDS011;10179;42.640;23.312;2023-07-13T09:38:59;9.57;;;5.45;;
20036;SDS011;10179;42.640;23.312;2023-07-13T09:44:28;9.73;;;5.07;;
20036;SDS011;10179;42.640;23.312;2023-07-13T09:46:56;10.45;;;5.45;;
20036;SDS011;10179;42.640;23.312;2023-07-13T09:49:32;10.30;;;5.45;;
20036;SDS011;10179;42.640;23.312;2023-07-13T09:52:09;9.82;;;5.30;;
20036;SDS011;10179;42.640;23.312;2023-07-13T09:54:37;11.25;;;5.45;;
20036;SDS011;10179;42.640;23.312;2023-07-13T09:57:03;10.73;;;5.22;;
20036;SDS011;10179;42.640;23.312;2023-07-13T09:59:40;6.40;;;4.65;;
20036;SDS011;10179;42.640;23.312;2023-07-13T10:05:23;10.37;;;5.50;;
20036;SDS011;10179;42.640;23.312;2023-07-13T10:07:49;20.95;;;5.65;;
20036;SDS011;10179;42.640;23.312;2023-07-13T10:10:16;12.93;;;5.75;;
20036;SDS011;10179;42.640;23.312;2023-07-13T10:12:45;7.80;;;5.35;;
20036;SDS011;10179;42.640;23.312;2023-07-13T10:15:21;11.02;;;5.60;;
20036;SDS011;10179;42.640;23.312;2023-07-13T10:17:51;13.25;;;5.35;;
20036;SDS011;10179;42.640;23.312;2023-07-13T10:20:17;9.45;;;5.10;;
20036;SDS011;10179;42.640;23.312;2023-07-13T10:22:49;8.10;;;5.00;;
20036;SDS011;10179;42.640;23.312;2023-07-13T10:25:20;8.88;;;4.90;;
20036;SDS011;10179;42.640;23.312;2023-07-13T10:27:50;11.18;;;5.35;;
20036;SDS011;10179;42.640;23.312;2023-07-13T10:30:20;7.15;;;4.95;;
20036;SDS011;10179;42.640;23.312;2023-07-13T10:32:50;10.20;;;5.25;;
20036;SDS011;10179;42.640;23.312;2023-07-13T10:35:18;12.57;;;4.85;;
20036;SDS011;10179;42.640;23.312;2023-07-13T10:40:23;10.80;;;4.80;;
20036;SDS011;10179;42.640;23.312;2023-07-13T10:42:55;9.38;;;4.78;;
20036;SDS011;10179;42.640;23.312;2023-07-13T10:45:24;6.72;;;4.55;;
20036;SDS011;10179;42.640;23.312;2023-07-13T10:47:51;8.60;;;4.72;;
20036;SDS011;10179;42.640;23.312;2023-07-13T10:50:24;8.85;;;4.78;;
20036;SDS011;10179;42.640;23.312;2023-07-13T10:52:55;8.83;;;4.33;;
20036;SDS011;10179;42.640;23.312;2023-07-13T10:55:33;4.72;;;3.22;;
20036;SDS011;10179;42.640;23.312;2023-07-13T10:58:12;4.32;;;3.00;;
20036;SDS011;10179;42.640;23.312;2023-07-13T11:01:26;7.53;;;3.00;;
20036;SDS011;10179;42.640;23.312;2023-07-13T11:13:56;8.38;;;3.35;;
20036;SDS011;10179;42.640;23.312;2023-07-13T11:19:07;7.50;;;3.33;;
20036;SDS011;10179;42.640;23.312;2023-07-13T11:38:27;13.90;;;4.90;;
20036;SDS011;10179;42.640;23.312;2023-07-13T11:40:58;10.38;;;4.40;;
20036;SDS011;10179;42.640;23.312;2023-07-13T11:43:28;6.70;;;4.80;;
20036;SDS011;10179;42.640;23.312;2023-07-13T11:45:54;10.20;;;3.45;;
20036;SDS011;10179;42.640;23.312;2023-07-13T11:48:20;9.15;;;3.10;;
20036;SDS011;10179;42.640;23.312;2023-07-13T11:50:53;11.32;;;3.40;;
20036;SDS011;10179;42.640;23.312;2023-07-13T11:53:26;10.38;;;3.88;;
20036;SDS011;10179;42.640;23.312;2023-07-13T11:55:54;9.82;;;3.97;;
20036;SDS011;10179;42.640;23.312;2023-07-13T11:58:22;12.43;;;3.60;;
20036;SDS011;10179;42.640;23.312;2023-07-13T12:00:50;7.75;;;3.47;;
20036;SDS011;10179;42.640;23.312;2023-07-13T12:03:20;12.45;;;4.18;;
20036;SDS011;10179;42.640;23.312;2023-07-13T12:06:00;13.85;;;4.30;;
20036;SDS011;10179;42.640;23.312;2023-07-13T12:08:28;11.05;;;5.97;;
20036;SDS011;10179;42.640;23.312;2023-07-13T12:10:58;16.13;;;3.65;;
20036;SDS011;10179;42.640;23.312;2023-07-13T12:13:26;9.43;;;2.63;;
20036;SDS011;10179;42.640;23.312;2023-07-13T12:15:53;10.82;;;4.50;;
20036;SDS011;10179;42.640;23.312;2023-07-13T12:18:22;12.63;;;4.50;;
20036;SDS011;10179;42.640;23.312;2023-07-13T12:20:49;10.13;;;4.43;;
20036;SDS011;10179;42.640;23.312;2023-07-13T12:23:28;8.77;;;4.63;;
20036;SDS011;10179;42.640;23.312;2023-07-13T12:25:55;10.60;;;5.00;;
20036;SDS011;10179;42.640;23.312;2023-07-13T12:28:32;7.82;;;4.40;;
20036;SDS011;10179;42.640;23.312;2023-07-13T12:31:06;11.23;;;4.35;;
20036;SDS011;10179;42.640;23.312;2023-07-13T12:33:33;7.85;;;4.32;;
20036;SDS011;10179;42.640;23.312;2023-07-13T12:36:00;10.02;;;4.30;;
20036;SDS011;10179;42.640;23.312;2023-07-13T12:38:28;8.65;;;4.22;;
20036;SDS011;10179;42.640;23.312;2023-07-13T12:40:55;10.15;;;4.15;;
20036;SDS011;10179;42.640;23.312;2023-07-13T12:43:22;15.98;;;4.45;;
20036;SDS011;10179;42.640;23.312;2023-07-13T12:45:58;13.75;;;4.93;;
20036;SDS011;10179;42.640;23.312;2023-07-13T12:48:26;10.07;;;4.60;;
20036;SDS011;10179;42.640;23.312;2023-07-13T12:50:53;8.10;;;4.13;;
20036;SDS011;10179;42.640;23.312;2023-07-13T12:53:27;17.33;;;4.30;;
20036;SDS011;10179;42.640;23.312;2023-07-13T12:55:56;9.68;;;4.35;;
20036;SDS011;10179;42.640;23.312;2023-07-13T12:58:28;12.15;;;4.20;;
20036;SDS011;10179;42.640;23.312;2023-07-13T13:00:57;8.80;;;4.30;;
20036;SDS011;10179;42.640;23.312;2023-07-13T13:03:28;13.32;;;4.15;;
20036;SDS011;10179;42.640;23.312;2023-07-13T13:06:02;13.27;;;5.10;;
20036;SDS011;10179;42.640;23.312;2023-07-13T13:08:33;12.70;;;4.43;;
20036;SDS011;10179;42.640;23.312;2023-07-13T13:11:01;13.80;;;4.30;;
20036;SDS011;10179;42.640;23.312;2023-07-13T13:13:26;7.68;;;3.97;;
20036;SDS011;10179;42.640;23.312;2023-07-13T13:15:52;7.85;;;4.15;;
20036;SDS011;10179;42.640;23.312;2023-07-13T13:18:19;7.07;;;4.00;;
20036;SDS011;10179;42.640;23.312;2023-07-13T13:20:46;9.52;;;3.83;;
20036;SDS011;10179;42.640;23.312;2023-07-13T13:23:16;10.13;;;4.20;;
20036;SDS011;10179;42.640;23.312;2023-07-13T13:25:47;18.45;;;4.43;;
20036;SDS011;10179;42.640;23.312;2023-07-13T13:28:16;10.85;;;4.70;;
20036;SDS011;10179;42.640;23.312;2023-07-13T13:30:44;10.40;;;4.40;;
20036;SDS011;10179;42.640;23.312;2023-07-13T13:33:12;12.77;;;4.68;;
20036;SDS011;10179;42.640;23.312;2023-07-13T13:35:40;10.52;;;3.85;;
20036;SDS011;10179;42.640;23.312;2023-07-13T13:38:10;10.25;;;4.28;;
20036;SDS011;10179;42.640;23.312;2023-07-13T13:40:41;8.15;;;3.78;;
20036;SDS011;10179;42.640;23.312;2023-07-13T13:43:14;13.73;;;4.50;;
20036;SDS011;10179;42.640;23.312;2023-07-13T13:45:56;11.00;;;4.60;;
20036;SDS011;10179;42.640;23.312;2023-07-13T13:48:30;11.40;;;4.68;;
20036;SDS011;10179;42.640;23.312;2023-07-13T13:50:57;13.43;;;4.07;;
20036;SDS011;10179;42.640;23.312;2023-07-13T13:53:24;9.30;;;4.43;;
20036;SDS011;10179;42.640;23.312;2023-07-13T13:55:50;10.55;;;4.18;;
20036;SDS011;10179;42.640;23.312;2023-07-13T13:58:17;8.52;;;3.97;;
20036;SDS011;10179;42.640;23.312;2023-07-13T14:00:42;11.80;;;4.22;;
20036;SDS011;10179;42.640;23.312;2023-07-13T14:03:20;11.85;;;3.95;;
20036;SDS011;10179;42.640;23.312;2023-07-13T14:05:47;15.07;;;4.60;;
20036;SDS011;10179;42.640;23.312;2023-07-13T14:08:14;10.15;;;4.00;;
20036;SDS011;10179;42.640;23.312;2023-07-13T14:10:42;7.40;;;4.40;;
20036;SDS011;10179;42.640;23.312;2023-07-13T14:13:15;15.40;;;4.00;;
20036;SDS011;10179;42.640;23.312;2023-07-13T14:15:43;14.52;;;4.80;;
20036;SDS011;10179;42.640;23.312;2023-07-13T14:18:10;10.05;;;4.60;;
20036;SDS011;10179;42.640;23.312;2023-07-13T14:20:35;13.00;;;4.25;;
20036;SDS011;10179;42.640;23.312;2023-07-13T14:23:01;11.23;;;4.50;;
20036;SDS011;10179;42.640;23.312;2023-07-13T14:25:26;15.32;;;3.80;;
20036;SDS011;10179;42.640;23.312;2023-07-13T14:27:53;9.30;;;4.72;;
20036;SDS011;10179;42.640;23.312;2023-07-13T14:30:24;12.85;;;4.47;;
20036;SDS011;10179;42.640;23.312;2023-07-13T14:32:50;18.83;;;5.65;;
20036;SDS011;10179;42.640;23.312;2023-07-13T14:35:17;9.68;;;4.03;;
20036;SDS011;10179;42.640;23.312;2023-07-13T14:37:45;9.90;;;4.25;;
20036;SDS011;10179;42.640;23.312;2023-07-13T14:42:50;10.38;;;3.75;;
20036;SDS011;10179;42.640;23.312;2023-07-13T14:45:17;13.50;;;4.57;;
20036;SDS011;10179;42.640;23.312;2023-07-13T14:47:44;10.23;;;3.40;;
20036;SDS011;10179;42.640;23.312;2023-07-13T14:50:20;14.90;;;3.42;;
20036;SDS011;10179;42.640;23.312;2023-07-13T14:52:49;11.05;;;3.35;;
20036;SDS011;10179;42.640;23.312;2023-07-13T14:55:16;12.57;;;3.67;;
20036;SDS011;10179;42.640;23.312;2023-07-13T14:57:42;10.68;;;3.40;;
20036;SDS011;10179;42.640;23.312;2023-07-13T15:02:44;11.82;;;3.30;;
20036;SDS011;10179;42.640;23.312;2023-07-13T15:05:16;5.10;;;2.65;;
20036;SDS011;10179;42.640;23.312;2023-07-13T15:07:44;9.45;;;4.13;;
20036;SDS011;10179;42.640;23.312;2023-07-13T15:10:13;13.60;;;3.92;;
20036;SDS011;10179;42.640;23.312;2023-07-13T15:12:42;9.27;;;3.63;;
20036;SDS011;10179;42.640;23.312;2023-07-13T15:15:08;11.52;;;3.63;;
20036;SDS011;10179;42.640;23.312;2023-07-13T15:20:06;9.60;;;3.25;;
20036;SDS011;10179;42.640;23.312;2023-07-13T15:22:53;15.13;;;3.15;;
20036;SDS011;10179;42.640;23.312;2023-07-13T15:25:21;9.23;;;3.30;;
20036;SDS011;10179;42.640;23.312;2023-07-13T15:27:49;8.02;;;3.50;;
20036;SDS011;10179;42.640;23.312;2023-07-13T15:30:15;10.07;;;3.20;;
20036;SDS011;10179;42.640;23.312;2023-07-13T15:32:43;9.63;;;4.30;;
20036;SDS011;10179;42.640;23.312;2023-07-13T15:35:13;12.02;;;3.55;;
20036;SDS011;10179;42.640;23.312;2023-07-13T15:37:39;6.13;;;3.10;;